sensor_id;sensor_type;location;lat;lon;timestamp;P1;durP1;ratioP1;P2;durP2;ratioP2
3333;SDS011;1679;50.392;8.008;2023-06-19T00:00:02;12.70;;;11.70;;
3333;SDS011;1679;50.392;8.008;2023-06-19T00:02:37;12.37;;;11.30;;
3333;SDS011;1679;50.392;8.008;2023-06-19T00:05:03;12.20;;;11.00;;
3333;SDS011;1679;50.392;8.008;2023-06-19T00:07:29;12.23;;;11.33;;
3333;SDS011;1679;50.392;8.008;2023-06-19T00:09:54;11.40;;;10.50;;
3333;SDS011;1679;50.392;8.008;2023-06-19T00:12:20;11.53;;;10.60;;
3333;SDS011;1679;50.392;8.008;2023-06-19T00:14:45;15.57;;;10.70;;
3333;SDS011;1679;50.392;8.008;2023-06-19T00:17:11;11.93;;;11.03;;
3333;SDS011;1679;50.392;8.008;2023-06-19T00:19:41;12.47;;;11.57;;
3333;SDS011;1679;50.392;8.008;2023-06-19T00:22:07;11.67;;;10.77;;
3333;SDS011;1679;50.392;8.008;2023-06-19T00:24:33;11.97;;;11.03;;
3333;SDS011;1679;50.392;8.008;2023-06-19T00:26:58;12.60;;;11.27;;
3333;SDS011;1679;50.392;8.008;2023-06-19T00:29:31;12.93;;;11.90;;
3333;SDS011;1679;50.392;8.008;2023-06-19T00:31:58;11.70;;;10.83;;
3333;SDS011;1679;50.392;8.008;2023-06-19T00:34:24;12.20;;;11.10;;
3333;SDS011;1679;50.392;8.008;2023-06-19T00:36:50;12.83;;;11.83;;
3333;SDS011;1679;50.392;8.008;2023-06-19T00:39:16;13.20;;;12.00;;
3333;SDS011;1679;50.392;8.008;2023-06-19T00:41:42;12.53;;;11.53;;
3333;SDS011;1679;50.392;8.008;2023-06-19T00:44:09;12.07;;;11.17;;
3333;SDS011;1679;50.392;8.008;2023-06-19T00:46:38;12.43;;;11.43;;
3333;SDS011;1679;50.392;8.008;2023-06-19T00:49:05;11.77;;;10.90;;
3333;SDS011;1679;50.392;8.008;2023-06-19T00:51:31;11.13;;;10.33;;
3333;SDS011;1679;50.392;8.008;2023-06-19T00:53:57;11.33;;;10.30;;
3333;SDS011;1679;50.392;8.008;2023-06-19T00:56:22;12.43;;;11.40;;
3333;SDS011;1679;50.392;8.008;2023-06-19T00:58:48;12.70;;;11.70;;
3333;SDS011;1679;50.392;8.008;2023-06-19T01:01:14;13.63;;;12.27;;
3333;SDS011;1679;50.392;8.008;2023-06-19T01:03:39;11.73;;;10.80;;
3333;SDS011;1679;50.392;8.008;2023-06-19T01:06:07;12.40;;;11.40;;
3333;SDS011;1679;50.392;8.008;2023-06-19T01:11:28;12.67;;;11.57;;
3333;SDS011;1679;50.392;8.008;2023-06-19T01:14:25;11.67;;;10.73;;
3333;SDS011;1679;50.392;8.008;2023-06-19T01:16:51;11.77;;;10.87;;
3333;SDS011;1679;50.392;8.008;2023-06-19T01:19:20;12.13;;;11.20;;
3333;SDS011;1679;50.392;8.008;2023-06-19T01:21:46;13.00;;;12.00;;
3333;SDS011;1679;50.392;8.008;2023-06-19T01:24:13;13.13;;;12.03;;
3333;SDS011;1679;50.392;8.008;2023-06-19T01:26:38;13.70;;;11.60;;
3333;SDS011;1679;50.392;8.008;2023-06-19T01:29:04;12.63;;;11.63;;
3333;SDS011;1679;50.392;8.008;2023-06-19T01:31:35;13.03;;;11.93;;
3333;SDS011;1679;50.392;8.008;2023-06-19T01:34:07;13.90;;;11.90;;
3333;SDS011;1679;50.392;8.008;2023-06-19T01:36:35;12.57;;;11.60;;
3333;SDS011;1679;50.392;8.008;2023-06-19T01:39:03;12.37;;;11.37;;
3333;SDS011;1679;50.392;8.008;2023-06-19T01:41:29;12.27;;;11.07;;
3333;SDS011;1679;50.392;8.008;2023-06-19T01:43:56;11.60;;;10.60;;
3333;SDS011;1679;50.392;8.008;2023-06-19T01:46:24;10.87;;;9.97;;
3333;SDS011;1679;50.392;8.008;2023-06-19T01:48:49;11.20;;;10.30;;
3333;SDS011;1679;50.392;8.008;2023-06-19T01:51:15;12.57;;;11.57;;
3333;SDS011;1679;50.392;8.008;2023-06-19T01:53:41;11.17;;;10.37;;
3333;SDS011;1679;50.392;8.008;2023-06-19T01:56:06;11.90;;;10.70;;
3333;SDS011;1679;50.392;8.008;2023-06-19T01:58:32;11.67;;;10.80;;
3333;SDS011;1679;50.392;8.008;2023-06-19T02:00:58;11.20;;;10.40;;
3333;SDS011;1679;50.392;8.008;2023-06-19T02:03:23;10.50;;;9.80;;
3333;SDS011;1679;50.392;8.008;2023-06-19T02:05:49;11.27;;;10.17;;
3333;SDS011;1679;50.392;8.008;2023-06-19T02:08:14;11.70;;;10.60;;
3333;SDS011;1679;50.392;8.008;2023-06-19T02:10:40;12.00;;;11.00;;
3333;SDS011;1679;50.392;8.008;2023-06-19T02:13:05;11.53;;;10.53;;
3333;SDS011;1679;50.392;8.008;2023-06-19T02:15:31;10.40;;;9.70;;
3333;SDS011;1679;50.392;8.008;2023-06-19T02:17:56;12.47;;;11.10;;
3333;SDS011;1679;50.392;8.008;2023-06-19T02:20:22;10.80;;;9.93;;
3333;SDS011;1679;50.392;8.008;2023-06-19T02:22:51;11.60;;;10.80;;
3333;SDS011;1679;50.392;8.008;2023-06-19T02:25:17;12.60;;;11.50;;
3333;SDS011;1679;50.392;8.008;2023-06-19T02:27:44;11.80;;;11.00;;
3333;SDS011;1679;50.392;8.008;2023-06-19T02:30:10;12.20;;;11.30;;
3333;SDS011;1679;50.392;8.008;2023-06-19T02:32:36;11.80;;;10.90;;
3333;SDS011;1679;50.392;8.008;2023-06-19T02:35:05;11.47;;;10.50;;
3333;SDS011;1679;50.392;8.008;2023-06-19T02:37:33;12.50;;;11.50;;
3333;SDS011;1679;50.392;8.008;2023-06-19T02:40:00;11.60;;;10.70;;
3333;SDS011;1679;50.392;8.008;2023-06-19T02:42:28;11.70;;;10.80;;
3333;SDS011;1679;50.392;8.008;2023-06-19T02:44:53;13.17;;;12.10;;
3333;SDS011;1679;50.392;8.008;2023-06-19T02:47:19;12.57;;;11.23;;
3333;SDS011;1679;50.392;8.008;2023-06-19T02:49:44;11.97;;;10.77;;
3333;SDS011;1679;50.392;8.008;2023-06-19T02:52:10;12.13;;;11.13;;
3333;SDS011;1679;50.392;8.008;2023-06-19T02:54:35;12.37;;;11.47;;
3333;SDS011;1679;50.392;8.008;2023-06-19T02:57:01;11.93;;;11.03;;
3333;SDS011;1679;50.392;8.008;2023-06-19T02:59:26;11.90;;;10.77;;
3333;SDS011;1679;50.392;8.008;2023-06-19T03:01:52;11.83;;;11.00;;
3333;SDS011;1679;50.392;8.008;2023-06-19T03:04:17;11.67;;;10.70;;
3333;SDS011;1679;50.392;8.008;2023-06-19T03:06:43;16.43;;;12.60;;
3333;SDS011;1679;50.392;8.008;2023-06-19T03:09:08;12.83;;;11.73;;
3333;SDS011;1679;50.392;8.008;2023-06-19T03:11:40;12.23;;;11.13;;
3333;SDS011;1679;50.392;8.008;2023-06-19T03:14:06;13.07;;;12.00;;
3333;SDS011;1679;50.392;8.008;2023-06-19T03:16:32;12.90;;;11.70;;
3333;SDS011;1679;50.392;8.008;2023-06-19T03:18:59;12.00;;;11.13;;
3333;SDS011;1679;50.392;8.008;2023-06-19T03:21:24;12.73;;;11.63;;
3333;SDS011;1679;50.392;8.008;2023-06-19T03:23:50;13.20;;;12.10;;
3333;SDS011;1679;50.392;8.008;2023-06-19T03:26:15;12.90;;;11.90;;
3333;SDS011;1679;50.392;8.008;2023-06-19T03:28:42;12.53;;;11.63;;
3333;SDS011;1679;50.392;8.008;2023-06-19T03:31:08;12.50;;;11.30;;
3333;SDS011;1679;50.392;8.008;2023-06-19T03:33:33;12.50;;;11.20;;
3333;SDS011;1679;50.392;8.008;2023-06-19T03:35:59;12.07;;;11.00;;
3333;SDS011;1679;50.392;8.008;2023-06-19T03:38:24;12.00;;;10.80;;
3333;SDS011;1679;50.392;8.008;2023-06-19T03:40:50;11.73;;;10.73;;
3333;SDS011;1679;50.392;8.008;2023-06-19T03:43:15;12.63;;;11.43;;
3333;SDS011;1679;50.392;8.008;2023-06-19T03:45:41;11.27;;;10.47;;
3333;SDS011;1679;50.392;8.008;2023-06-19T03:48:07;12.20;;;11.20;;
3333;SDS011;1679;50.392;8.008;2023-06-19T03:50:32;12.70;;;11.70;;
3333;SDS011;1679;50.392;8.008;2023-06-19T03:52:58;11.67;;;10.67;;
3333;SDS011;1679;50.392;8.008;2023-06-19T03:55:23;11.60;;;10.60;;
3333;SDS011;1679;50.392;8.008;2023-06-19T03:57:49;11.80;;;10.87;;
3333;SDS011;1679;50.392;8.008;2023-06-19T04:00:15;12.77;;;11.67;;
3333;SDS011;1679;50.392;8.008;2023-06-19T04:02:43;12.10;;;11.07;;
3333;SDS011;1679;50.392;8.008;2023-06-19T04:05:11;12.60;;;11.60;;
3333;SDS011;1679;50.392;8.008;2023-06-19T04:07:36;12.20;;;11.00;;
3333;SDS011;1679;50.392;8.008;2023-06-19T04:10:02;12.37;;;11.47;;
3333;SDS011;1679;50.392;8.008;2023-06-19T04:12:28;11.50;;;10.70;;
3333;SDS011;1679;50.392;8.008;2023-06-19T04:14:53;12.47;;;10.77;;
3333;SDS011;1679;50.392;8.008;2023-06-19T04:17:19;12.40;;;11.40;;
3333;SDS011;1679;50.392;8.008;2023-06-19T04:19:44;12.40;;;11.50;;
3333;SDS011;1679;50.392;8.008;2023-06-19T04:22:10;13.63;;;12.43;;
3333;SDS011;1679;50.392;8.008;2023-06-19T04:24:35;12.30;;;11.30;;
3333;SDS011;1679;50.392;8.008;2023-06-19T04:27:01;12.87;;;11.53;;
3333;SDS011;1679;50.392;8.008;2023-06-19T04:29:28;12.13;;;11.13;;
3333;SDS011;1679;50.392;8.008;2023-06-19T04:31:56;10.60;;;9.70;;
3333;SDS011;1679;50.392;8.008;2023-06-19T04:34:25;11.00;;;10.00;;
3333;SDS011;1679;50.392;8.008;2023-06-19T04:36:51;11.30;;;10.20;;
3333;SDS011;1679;50.392;8.008;2023-06-19T04:39:17;10.03;;;9.23;;
3333;SDS011;1679;50.392;8.008;2023-06-19T04:41:43;8.80;;;8.20;;
3333;SDS011;1679;50.392;8.008;2023-06-19T04:44:09;9.70;;;9.00;;
3333;SDS011;1679;50.392;8.008;2023-06-19T04:46:38;9.63;;;8.67;;
3333;SDS011;1679;50.392;8.008;2023-06-19T04:49:04;9.10;;;8.40;;
3333;SDS011;1679;50.392;8.008;2023-06-19T04:51:30;7.10;;;6.60;;
3333;SDS011;1679;50.392;8.008;2023-06-19T04:53:58;7.30;;;6.80;;
3333;SDS011;1679;50.392;8.008;2023-06-19T04:56:27;6.30;;;5.80;;
3333;SDS011;1679;50.392;8.008;2023-06-19T04:58:53;5.53;;;5.23;;
3333;SDS011;1679;50.392;8.008;2023-06-19T05:01:24;6.30;;;5.90;;
3333;SDS011;1679;50.392;8.008;2023-06-19T05:03:53;6.90;;;6.47;;
3333;SDS011;1679;50.392;8.008;2023-06-19T05:06:19;6.13;;;5.73;;
3333;SDS011;1679;50.392;8.008;2023-06-19T05:08:46;6.67;;;6.07;;
3333;SDS011;1679;50.392;8.008;2023-06-19T05:11:12;6.00;;;5.60;;
3333;SDS011;1679;50.392;8.008;2023-06-19T05:13:38;6.30;;;5.80;;
3333;SDS011;1679;50.392;8.008;2023-06-19T05:16:03;5.20;;;4.90;;
3333;SDS011;1679;50.392;8.008;2023-06-19T05:18:29;5.73;;;5.33;;
3333;SDS011;1679;50.392;8.008;2023-06-19T05:20:54;5.53;;;5.20;;
3333;SDS011;1679;50.392;8.008;2023-06-19T05:23:20;5.70;;;5.30;;
3333;SDS011;1679;50.392;8.008;2023-06-19T05:25:46;5.53;;;5.23;;
3333;SDS011;1679;50.392;8.008;2023-06-19T05:28:11;6.07;;;5.67;;
3333;SDS011;1679;50.392;8.008;2023-06-19T05:30:37;4.73;;;4.43;;
3333;SDS011;1679;50.392;8.008;2023-06-19T05:33:02;5.30;;;5.00;;
3333;SDS011;1679;50.392;8.008;2023-06-19T05:35:28;5.77;;;5.37;;
3333;SDS011;1679;50.392;8.008;2023-06-19T05:37:55;5.43;;;5.10;;
3333;SDS011;1679;50.392;8.008;2023-06-19T05:40:20;5.27;;;4.97;;
3333;SDS011;1679;50.392;8.008;2023-06-19T05:42:46;5.53;;;5.10;;
3333;SDS011;1679;50.392;8.008;2023-06-19T05:45:11;5.20;;;4.90;;
3333;SDS011;1679;50.392;8.008;2023-06-19T05:47:37;6.47;;;5.73;;
3333;SDS011;1679;50.392;8.008;2023-06-19T05:50:03;6.30;;;5.80;;
3333;SDS011;1679;50.392;8.008;2023-06-19T05:52:28;5.43;;;5.13;;
3333;SDS011;1679;50.392;8.008;2023-06-19T05:54:54;5.30;;;5.00;;
3333;SDS011;1679;50.392;8.008;2023-06-19T05:57:20;5.23;;;4.93;;
3333;SDS011;1679;50.392;8.008;2023-06-19T05:59:49;6.27;;;5.67;;
3333;SDS011;1679;50.392;8.008;2023-06-19T06:02:15;6.10;;;5.60;;
3333;SDS011;1679;50.392;8.008;2023-06-19T06:04:45;6.17;;;5.67;;
3333;SDS011;1679;50.392;8.008;2023-06-19T06:07:11;5.87;;;5.30;;
3333;SDS011;1679;50.392;8.008;2023-06-19T06:09:36;5.97;;;5.60;;
3333;SDS011;1679;50.392;8.008;2023-06-19T06:12:02;6.20;;;5.70;;
3333;SDS011;1679;50.392;8.008;2023-06-19T06:14:28;8.33;;;6.00;;
3333;SDS011;1679;50.392;8.008;2023-06-19T06:16:54;5.73;;;5.40;;
3333;SDS011;1679;50.392;8.008;2023-06-19T06:19:20;6.10;;;5.70;;
3333;SDS011;1679;50.392;8.008;2023-06-19T06:21:47;6.53;;;5.93;;
3333;SDS011;1679;50.392;8.008;2023-06-19T06:24:13;5.97;;;5.47;;
3333;SDS011;1679;50.392;8.008;2023-06-19T06:26:39;5.90;;;5.50;;
3333;SDS011;1679;50.392;8.008;2023-06-19T06:29:04;5.87;;;5.57;;
3333;SDS011;1679;50.392;8.008;2023-06-19T06:31:29;5.70;;;5.30;;
3333;SDS011;1679;50.392;8.008;2023-06-19T06:33:55;6.57;;;6.13;;
3333;SDS011;1679;50.392;8.008;2023-06-19T06:36:20;6.13;;;5.73;;
3333;SDS011;1679;50.392;8.008;2023-06-19T06:38:46;5.70;;;5.30;;
3333;SDS011;1679;50.392;8.008;2023-06-19T06:41:12;5.43;;;5.13;;
3333;SDS011;1679;50.392;8.008;2023-06-19T06:43:37;6.30;;;5.80;;
3333;SDS011;1679;50.392;8.008;2023-06-19T06:46:05;5.50;;;5.20;;
3333;SDS011;1679;50.392;8.008;2023-06-19T06:48:30;6.10;;;5.77;;
3333;SDS011;1679;50.392;8.008;2023-06-19T06:50:56;6.27;;;5.80;;
3333;SDS011;1679;50.392;8.008;2023-06-19T06:53:26;9.90;;;5.80;;
3333;SDS011;1679;50.392;8.008;2023-06-19T06:55:53;5.43;;;5.13;;
3333;SDS011;1679;50.392;8.008;2023-06-19T06:58:18;6.50;;;6.00;;
3333;SDS011;1679;50.392;8.008;2023-06-19T07:00:44;6.67;;;6.07;;
3333;SDS011;1679;50.392;8.008;2023-06-19T07:03:10;6.23;;;5.83;;
3333;SDS011;1679;50.392;8.008;2023-06-19T07:05:36;6.00;;;5.60;;
3333;SDS011;1679;50.392;8.008;2023-06-19T07:08:01;6.17;;;5.77;;
3333;SDS011;1679;50.392;8.008;2023-06-19T07:10:28;6.23;;;5.83;;
3333;SDS011;1679;50.392;8.008;2023-06-19T07:12:55;6.57;;;6.17;;
3333;SDS011;1679;50.392;8.008;2023-06-19T07:15:21;6.83;;;6.17;;
3333;SDS011;1679;50.392;8.008;2023-06-19T07:17:46;5.70;;;5.40;;
3333;SDS011;1679;50.392;8.008;2023-06-19T07:20:13;6.00;;;5.40;;
3333;SDS011;1679;50.392;8.008;2023-06-19T07:22:39;5.97;;;5.30;;
3333;SDS011;1679;50.392;8.008;2023-06-19T07:25:05;5.77;;;5.37;;
3333;SDS011;1679;50.392;8.008;2023-06-19T07:27:31;6.20;;;5.70;;
3333;SDS011;1679;50.392;8.008;2023-06-19T07:29:56;5.40;;;5.10;;
3333;SDS011;1679;50.392;8.008;2023-06-19T07:32:22;6.23;;;5.83;;
3333;SDS011;1679;50.392;8.008;2023-06-19T07:34:48;5.77;;;5.37;;
3333;SDS011;1679;50.392;8.008;2023-06-19T07:37:13;5.73;;;5.30;;
3333;SDS011;1679;50.392;8.008;2023-06-19T07:39:49;5.80;;;5.40;;
3333;SDS011;1679;50.392;8.008;2023-06-19T07:42:16;5.40;;;5.10;;
3333;SDS011;1679;50.392;8.008;2023-06-19T07:44:43;5.60;;;5.20;;
3333;SDS011;1679;50.392;8.008;2023-06-19T07:47:09;5.53;;;5.13;;
3333;SDS011;1679;50.392;8.008;2023-06-19T07:49:35;6.60;;;6.10;;
3333;SDS011;1679;50.392;8.008;2023-06-19T07:52:02;5.53;;;5.13;;
3333;SDS011;1679;50.392;8.008;2023-06-19T07:54:28;5.53;;;5.13;;
3333;SDS011;1679;50.392;8.008;2023-06-19T07:56:53;6.67;;;5.50;;
3333;SDS011;1679;50.392;8.008;2023-06-19T07:59:19;5.47;;;5.17;;
3333;SDS011;1679;50.392;8.008;2023-06-19T08:01:45;5.47;;;5.07;;
3333;SDS011;1679;50.392;8.008;2023-06-19T08:04:11;5.90;;;5.50;;
3333;SDS011;1679;50.392;8.008;2023-06-19T08:06:36;5.97;;;5.67;;
3333;SDS011;1679;50.392;8.008;2023-06-19T08:09:02;5.40;;;5.10;;
3333;SDS011;1679;50.392;8.008;2023-06-19T08:11:28;6.33;;;5.83;;
3333;SDS011;1679;50.392;8.008;2023-06-19T08:13:53;6.03;;;5.73;;
3333;SDS011;1679;50.392;8.008;2023-06-19T08:16:19;5.60;;;5.20;;
3333;SDS011;1679;50.392;8.008;2023-06-19T08:18:45;5.90;;;5.50;;
3333;SDS011;1679;50.392;8.008;2023-06-19T08:21:11;6.10;;;5.60;;
3333;SDS011;1679;50.392;8.008;2023-06-19T08:23:37;5.20;;;4.90;;
3333;SDS011;1679;50.392;8.008;2023-06-19T08:26:08;7.30;;;5.10;;
3333;SDS011;1679;50.392;8.008;2023-06-19T08:28:34;5.33;;;4.93;;
3333;SDS011;1679;50.392;8.008;2023-06-19T08:31:00;6.97;;;6.30;;
3333;SDS011;1679;50.392;8.008;2023-06-19T08:33:25;5.90;;;5.40;;
3333;SDS011;1679;50.392;8.008;2023-06-19T08:35:51;5.80;;;5.30;;
3333;SDS011;1679;50.392;8.008;2023-06-19T08:38:17;5.73;;;5.33;;
3333;SDS011;1679;50.392;8.008;2023-06-19T08:40:43;5.10;;;4.80;;
3333;SDS011;1679;50.392;8.008;2023-06-19T08:43:09;5.50;;;5.20;;
3333;SDS011;1679;50.392;8.008;2023-06-19T08:45:35;5.50;;;5.20;;
3333;SDS011;1679;50.392;8.008;2023-06-19T08:48:01;4.70;;;4.40;;
3333;SDS011;1679;50.392;8.008;2023-06-19T08:50:28;5.37;;;5.07;;
3333;SDS011;1679;50.392;8.008;2023-06-19T08:52:55;5.87;;;5.47;;
3333;SDS011;1679;50.392;8.008;2023-06-19T08:55:21;5.07;;;4.77;;
3333;SDS011;1679;50.392;8.008;2023-06-19T08:57:47;5.37;;;4.97;;
3333;SDS011;1679;50.392;8.008;2023-06-19T09:00:22;5.40;;;5.00;;
3333;SDS011;1679;50.392;8.008;2023-06-19T09:02:50;6.77;;;4.63;;
3333;SDS011;1679;50.392;8.008;2023-06-19T09:05:17;4.60;;;4.30;;
3333;SDS011;1679;50.392;8.008;2023-06-19T09:07:44;4.77;;;4.47;;
3333;SDS011;1679;50.392;8.008;2023-06-19T09:10:23;4.80;;;4.50;;
3333;SDS011;1679;50.392;8.008;2023-06-19T09:13:22;6.67;;;5.40;;
3333;SDS011;1679;50.392;8.008;2023-06-19T09:15:41;5.03;;;4.60;;
3333;SDS011;1679;50.392;8.008;2023-06-19T09:18:10;5.00;;;4.60;;
3333;SDS011;1679;50.392;8.008;2023-06-19T09:20:38;6.37;;;5.77;;
3333;SDS011;1679;50.392;8.008;2023-06-19T09:23:08;4.80;;;4.50;;
3333;SDS011;1679;50.392;8.008;2023-06-19T09:25:45;5.23;;;5.00;;
3333;SDS011;1679;50.392;8.008;2023-06-19T09:28:22;5.57;;;5.07;;
3333;SDS011;1679;50.392;8.008;2023-06-19T09:30:55;5.33;;;5.03;;
3333;SDS011;1679;50.392;8.008;2023-06-19T09:33:32;4.97;;;4.57;;
3333;SDS011;1679;50.392;8.008;2023-06-19T09:35:59;4.97;;;4.67;;
3333;SDS011;1679;50.392;8.008;2023-06-19T09:38:27;5.93;;;5.20;;
3333;SDS011;1679;50.392;8.008;2023-06-19T09:41:04;5.53;;;5.03;;
3333;SDS011;1679;50.392;8.008;2023-06-19T09:43:37;5.60;;;5.10;;
3333;SDS011;1679;50.392;8.008;2023-06-19T09:46:07;4.80;;;4.60;;
3333;SDS011;1679;50.392;8.008;2023-06-19T09:48:35;5.47;;;5.17;;
3333;SDS011;1679;50.392;8.008;2023-06-19T09:53:33;5.03;;;4.77;;
3333;SDS011;1679;50.392;8.008;2023-06-19T09:55:59;5.90;;;5.50;;
3333;SDS011;1679;50.392;8.008;2023-06-19T09:58:25;5.33;;;5.03;;
3333;SDS011;1679;50.392;8.008;2023-06-19T10:00:52;4.70;;;4.40;;
3333;SDS011;1679;50.392;8.008;2023-06-19T10:03:20;4.80;;;4.50;;
3333;SDS011;1679;50.392;8.008;2023-06-19T10:05:46;5.10;;;4.77;;
3333;SDS011;1679;50.392;8.008;2023-06-19T10:08:11;6.93;;;4.53;;
3333;SDS011;1679;50.392;8.008;2023-06-19T10:10:37;5.90;;;5.30;;
3333;SDS011;1679;50.392;8.008;2023-06-19T10:13:14;4.87;;;4.43;;
3333;SDS011;1679;50.392;8.008;2023-06-19T10:15:41;5.47;;;5.10;;
3333;SDS011;1679;50.392;8.008;2023-06-19T10:18:08;4.20;;;4.00;;
3333;SDS011;1679;50.392;8.008;2023-06-19T10:20:39;4.97;;;4.57;;
3333;SDS011;1679;50.392;8.008;2023-06-19T10:23:06;4.57;;;4.30;;
3333;SDS011;1679;50.392;8.008;2023-06-19T10:25:43;4.40;;;4.20;;
3333;SDS011;1679;50.392;8.008;2023-06-19T10:30:43;4.20;;;4.00;;
3333;SDS011;1679;50.392;8.008;2023-06-19T10:33:09;4.22;;;4.03;;
3333;SDS011;1679;50.392;8.008;2023-06-19T10:35:40;4.37;;;3.93;;
3333;SDS011;1679;50.392;8.008;2023-06-19T10:38:06;3.90;;;3.70;;
3333;SDS011;1679;50.392;8.008;2023-06-19T10:40:33;4.77;;;4.47;;
3333;SDS011;1679;50.392;8.008;2023-06-19T10:43:00;4.73;;;4.43;;
3333;SDS011;1679;50.392;8.008;2023-06-19T10:45:25;4.57;;;4.27;;
3333;SDS011;1679;50.392;8.008;2023-06-19T10:47:53;4.10;;;3.90;;
3333;SDS011;1679;50.392;8.008;2023-06-19T10:50:19;4.03;;;3.83;;
3333;SDS011;1679;50.392;8.008;2023-06-19T10:52:45;4.00;;;3.70;;
3333;SDS011;1679;50.392;8.008;2023-06-19T10:55:12;3.70;;;3.50;;
3333;SDS011;1679;50.392;8.008;2023-06-19T10:57:39;4.43;;;4.07;;
3333;SDS011;1679;50.392;8.008;2023-06-19T11:00:06;4.20;;;3.97;;
3333;SDS011;1679;50.392;8.008;2023-06-19T11:02:37;3.95;;;3.65;;
3333;SDS011;1679;50.392;8.008;2023-06-19T11:05:04;4.72;;;4.43;;
3333;SDS011;1679;50.392;8.008;2023-06-19T11:07:31;3.85;;;3.65;;
3333;SDS011;1679;50.392;8.008;2023-06-19T11:09:57;3.93;;;3.73;;
3333;SDS011;1679;50.392;8.008;2023-06-19T11:12:23;3.80;;;3.60;;
3333;SDS011;1679;50.392;8.008;2023-06-19T11:14:49;3.93;;;3.70;;
3333;SDS011;1679;50.392;8.008;2023-06-19T11:17:15;4.60;;;4.20;;
3333;SDS011;1679;50.392;8.008;2023-06-19T11:19:43;4.10;;;3.90;;
3333;SDS011;1679;50.392;8.008;2023-06-19T11:22:09;3.77;;;3.57;;
3333;SDS011;1679;50.392;8.008;2023-06-19T11:24:36;3.60;;;3.40;;
3333;SDS011;1679;50.392;8.008;2023-06-19T11:27:02;3.73;;;3.43;;
3333;SDS011;1679;50.392;8.008;2023-06-19T11:29:31;4.47;;;3.50;;
3333;SDS011;1679;50.392;8.008;2023-06-19T11:32:09;4.20;;;4.00;;
3333;SDS011;1679;50.392;8.008;2023-06-19T11:34:37;3.70;;;3.50;;
3333;SDS011;1679;50.392;8.008;2023-06-19T11:37:11;5.53;;;3.53;;
3333;SDS011;1679;50.392;8.008;2023-06-19T11:39:41;3.90;;;3.70;;
3333;SDS011;1679;50.392;8.008;2023-06-19T11:42:08;4.47;;;4.27;;
3333;SDS011;1679;50.392;8.008;2023-06-19T11:44:34;3.83;;;3.63;;
3333;SDS011;1679;50.392;8.008;2023-06-19T11:47:00;4.00;;;3.70;;
3333;SDS011;1679;50.392;8.008;2023-06-19T11:49:25;3.97;;;3.77;;
3333;SDS011;1679;50.392;8.008;2023-06-19T11:51:51;4.10;;;3.80;;
3333;SDS011;1679;50.392;8.008;2023-06-19T11:54:18;4.27;;;3.97;;
3333;SDS011;1679;50.392;8.008;2023-06-19T11:56:44;3.88;;;3.65;;
3333;SDS011;1679;50.392;8.008;2023-06-19T11:59:09;4.13;;;3.75;;
3333;SDS011;1679;50.392;8.008;2023-06-19T12:01:35;3.88;;;3.50;;
3333;SDS011;1679;50.392;8.008;2023-06-19T12:04:02;5.05;;;4.07;;
3333;SDS011;1679;50.392;8.008;2023-06-19T12:06:28;4.40;;;3.88;;
3333;SDS011;1679;50.392;8.008;2023-06-19T12:08:54;5.77;;;3.83;;
3333;SDS011;1679;50.392;8.008;2023-06-19T12:11:20;3.83;;;3.63;;
3333;SDS011;1679;50.392;8.008;2023-06-19T12:13:45;4.63;;;4.22;;
3333;SDS011;1679;50.392;8.008;2023-06-19T12:16:11;4.20;;;4.00;;
3333;SDS011;1679;50.392;8.008;2023-06-19T12:18:39;4.27;;;3.90;;
3333;SDS011;1679;50.392;8.008;2023-06-19T12:21:04;4.57;;;4.18;;
3333;SDS011;1679;50.392;8.008;2023-06-19T12:23:30;3.73;;;3.53;;
3333;SDS011;1679;50.392;8.008;2023-06-19T12:25:56;3.83;;;3.60;;
3333;SDS011;1679;50.392;8.008;2023-06-19T12:28:22;4.50;;;4.20;;
3333;SDS011;1679;50.392;8.008;2023-06-19T12:30:48;3.78;;;3.47;;
3333;SDS011;1679;50.392;8.008;2023-06-19T12:33:16;4.68;;;4.28;;
3333;SDS011;1679;50.392;8.008;2023-06-19T12:35:45;4.03;;;3.83;;
3333;SDS011;1679;50.392;8.008;2023-06-19T12:38:12;4.00;;;3.80;;
3333;SDS011;1679;50.392;8.008;2023-06-19T12:40:37;4.22;;;3.92;;
3333;SDS011;1679;50.392;8.008;2023-06-19T12:43:03;3.97;;;3.67;;
3333;SDS011;1679;50.392;8.008;2023-06-19T12:45:29;4.65;;;4.20;;
3333;SDS011;1679;50.392;8.008;2023-06-19T12:47:54;3.83;;;3.50;;
3333;SDS011;1679;50.392;8.008;2023-06-19T12:50:20;4.25;;;3.95;;
3333;SDS011;1679;50.392;8.008;2023-06-19T12:52:46;4.28;;;3.97;;
3333;SDS011;1679;50.392;8.008;2023-06-19T12:55:11;4.90;;;4.43;;
3333;SDS011;1679;50.392;8.008;2023-06-19T12:57:37;4.10;;;3.80;;
3333;SDS011;1679;50.392;8.008;2023-06-19T13:00:03;5.60;;;4.15;;
3333;SDS011;1679;50.392;8.008;2023-06-19T13:02:32;4.82;;;3.75;;
3333;SDS011;1679;50.392;8.008;2023-06-19T13:04:58;5.50;;;4.70;;
3333;SDS011;1679;50.392;8.008;2023-06-19T13:07:23;4.38;;;4.13;;
3333;SDS011;1679;50.392;8.008;2023-06-19T13:09:49;3.80;;;3.60;;
3333;SDS011;1679;50.392;8.008;2023-06-19T13:12:14;4.57;;;4.13;;
3333;SDS011;1679;50.392;8.008;2023-06-19T13:14:40;3.88;;;3.67;;
3333;SDS011;1679;50.392;8.008;2023-06-19T13:17:07;4.55;;;4.30;;
3333;SDS011;1679;50.392;8.008;2023-06-19T13:19:32;4.57;;;4.15;;
3333;SDS011;1679;50.392;8.008;2023-06-19T13:21:58;4.30;;;4.10;;
3333;SDS011;1679;50.392;8.008;2023-06-19T13:24:23;4.88;;;4.57;;
3333;SDS011;1679;50.392;8.008;2023-06-19T13:26:51;4.30;;;3.75;;
3333;SDS011;1679;50.392;8.008;2023-06-19T13:29:16;5.22;;;3.83;;
3333;SDS011;1679;50.392;8.008;2023-06-19T13:31:42;4.75;;;4.20;;
3333;SDS011;1679;50.392;8.008;2023-06-19T13:34:08;4.63;;;4.35;;
3333;SDS011;1679;50.392;8.008;2023-06-19T13:36:34;4.65;;;4.35;;
3333;SDS011;1679;50.392;8.008;2023-06-19T13:38:59;4.22;;;3.92;;
3333;SDS011;1679;50.392;8.008;2023-06-19T13:41:25;4.22;;;4.03;;
3333;SDS011;1679;50.392;8.008;2023-06-19T13:43:52;4.70;;;4.50;;
3333;SDS011;1679;50.392;8.008;2023-06-19T13:46:19;4.65;;;4.35;;
3333;SDS011;1679;50.392;8.008;2023-06-19T13:48:46;4.72;;;4.32;;
3333;SDS011;1679;50.392;8.008;2023-06-19T13:51:15;4.70;;;4.20;;
3333;SDS011;1679;50.392;8.008;2023-06-19T13:53:41;4.70;;;4.50;;
3333;SDS011;1679;50.392;8.008;2023-06-19T13:56:07;6.38;;;4.78;;
3333;SDS011;1679;50.392;8.008;2023-06-19T13:58:32;4.95;;;4.70;;
3333;SDS011;1679;50.392;8.008;2023-06-19T14:00:58;5.28;;;4.97;;
3333;SDS011;1679;50.392;8.008;2023-06-19T14:03:23;4.80;;;4.60;;
3333;SDS011;1679;50.392;8.008;2023-06-19T14:05:49;4.97;;;4.68;;
3333;SDS011;1679;50.392;8.008;2023-06-19T14:08:15;4.68;;;4.38;;
3333;SDS011;1679;50.392;8.008;2023-06-19T14:10:40;4.53;;;4.32;;
3333;SDS011;1679;50.392;8.008;2023-06-19T14:13:06;4.70;;;4.50;;
3333;SDS011;1679;50.392;8.008;2023-06-19T14:15:32;4.13;;;3.92;;
3333;SDS011;1679;50.392;8.008;2023-06-19T14:17:58;5.28;;;4.25;;
3333;SDS011;1679;50.392;8.008;2023-06-19T14:20:23;4.43;;;4.22;;
3333;SDS011;1679;50.392;8.008;2023-06-19T14:22:49;4.40;;;4.10;;
3333;SDS011;1679;50.392;8.008;2023-06-19T14:25:14;4.75;;;4.35;;
3333;SDS011;1679;50.392;8.008;2023-06-19T14:27:40;4.75;;;4.38;;
3333;SDS011;1679;50.392;8.008;2023-06-19T14:30:05;5.43;;;5.03;;
3333;SDS011;1679;50.392;8.008;2023-06-19T14:32:33;5.38;;;4.63;;
3333;SDS011;1679;50.392;8.008;2023-06-19T14:34:59;4.40;;;4.20;;
3333;SDS011;1679;50.392;8.008;2023-06-19T14:37:25;4.15;;;3.95;;
3333;SDS011;1679;50.392;8.008;2023-06-19T14:39:51;4.15;;;3.85;;
3333;SDS011;1679;50.392;8.008;2023-06-19T14:42:16;4.83;;;4.07;;
3333;SDS011;1679;50.392;8.008;2023-06-19T14:44:42;4.28;;;4.07;;
3333;SDS011;1679;50.392;8.008;2023-06-19T14:47:07;4.00;;;3.70;;
3333;SDS011;1679;50.392;8.008;2023-06-19T14:49:33;4.50;;;4.20;;
3333;SDS011;1679;50.392;8.008;2023-06-19T14:51:58;4.20;;;3.90;;
3333;SDS011;1679;50.392;8.008;2023-06-19T14:54:24;4.13;;;3.92;;
3333;SDS011;1679;50.392;8.008;2023-06-19T14:56:49;4.00;;;3.80;;
3333;SDS011;1679;50.392;8.008;2023-06-19T14:59:16;4.30;;;4.00;;
3333;SDS011;1679;50.392;8.008;2023-06-19T15:01:43;3.97;;;3.77;;
3333;SDS011;1679;50.392;8.008;2023-06-19T15:04:09;4.10;;;3.90;;
3333;SDS011;1679;50.392;8.008;2023-06-19T15:06:34;5.30;;;4.67;;
3333;SDS011;1679;50.392;8.008;2023-06-19T15:09:00;4.20;;;3.97;;
3333;SDS011;1679;50.392;8.008;2023-06-19T15:11:25;4.53;;;4.27;;